sensor_id;sensor_type;location;lat;lon;timestamp;P1;durP1;ratioP1;P2;durP2;ratioP2
13291;SDS011;6714;53.056;8.690;2023-03-04T00:02:37;12.93;;;2.80;;
13291;SDS011;6714;53.056;8.690;2023-03-04T00:05:19;8.43;;;2.67;;
13291;SDS011;6714;53.056;8.690;2023-03-04T00:08:01;11.90;;;2.83;;
13291;SDS011;6714;53.056;8.690;2023-03-04T00:10:43;9.70;;;2.43;;
13291;SDS011;6714;53.056;8.690;2023-03-04T00:13:26;12.03;;;2.70;;
13291;SDS011;6714;53.056;8.690;2023-03-04T00:16:09;9.50;;;2.90;;
13291;SDS011;6714;53.056;8.690;2023-03-04T00:18:51;8.30;;;2.90;;
13291;SDS011;6714;53.056;8.690;2023-03-04T00:21:33;8.70;;;2.43;;
13291;SDS011;6714;53.056;8.690;2023-03-04T00:24:16;6.67;;;2.37;;
13291;SDS011;6714;53.056;8.690;2023-03-04T00:26:58;10.13;;;2.13;;
13291;SDS011;6714;53.056;8.690;2023-03-04T00:29:40;10.67;;;2.43;;
13291;SDS011;6714;53.056;8.690;2023-03-04T00:32:24;10.40;;;2.70;;
13291;SDS011;6714;53.056;8.690;2023-03-04T00:35:06;11.73;;;2.60;;
13291;SDS011;6714;53.056;8.690;2023-03-04T00:37:48;8.33;;;2.37;;
13291;SDS011;6714;53.056;8.690;2023-03-04T00:40:30;11.87;;;2.90;;
13291;SDS011;6714;53.056;8.690;2023-03-04T00:43:13;8.63;;;2.40;;
13291;SDS011;6714;53.056;8.690;2023-03-04T00:45:55;7.77;;;2.03;;
13291;SDS011;6714;53.056;8.690;2023-03-04T00:48:38;7.03;;;1.97;;
13291;SDS011;6714;53.056;8.690;2023-03-04T00:51:20;7.63;;;1.80;;
13291;SDS011;6714;53.056;8.690;2023-03-04T00:54:03;7.93;;;2.93;;
13291;SDS011;6714;53.056;8.690;2023-03-04T00:56:45;10.10;;;2.63;;
13291;SDS011;6714;53.056;8.690;2023-03-04T00:59:27;9.57;;;2.60;;
13291;SDS011;6714;53.056;8.690;2023-03-04T01:02:09;11.53;;;2.70;;
13291;SDS011;6714;53.056;8.690;2023-03-04T01:04:53;11.23;;;2.63;;
13291;SDS011;6714;53.056;8.690;2023-03-04T01:07:35;8.13;;;1.93;;
13291;SDS011;6714;53.056;8.690;2023-03-04T01:10:17;10.60;;;2.33;;
13291;SDS011;6714;53.056;8.690;2023-03-04T01:12:59;10.77;;;2.67;;
13291;SDS011;6714;53.056;8.690;2023-03-04T01:15:42;8.47;;;2.27;;
13291;SDS011;6714;53.056;8.690;2023-03-04T01:18:24;8.03;;;2.10;;
13291;SDS011;6714;53.056;8.690;2023-03-04T01:21:08;9.33;;;1.90;;
13291;SDS011;6714;53.056;8.690;2023-03-04T01:23:50;7.23;;;1.77;;
13291;SDS011;6714;53.056;8.690;2023-03-04T01:26:32;8.83;;;2.10;;
13291;SDS011;6714;53.056;8.690;2023-03-04T01:29:14;6.60;;;2.10;;
13291;SDS011;6714;53.056;8.690;2023-03-04T01:31:56;6.57;;;2.00;;
13291;SDS011;6714;53.056;8.690;2023-03-04T01:34:38;8.53;;;2.20;;
13291;SDS011;6714;53.056;8.690;2023-03-04T01:37:22;8.40;;;2.20;;
13291;SDS011;6714;53.056;8.690;2023-03-04T01:40:05;10.87;;;2.27;;
13291;SDS011;6714;53.056;8.690;2023-03-04T01:42:47;11.40;;;2.33;;
13291;SDS011;6714;53.056;8.690;2023-03-04T01:45:29;8.27;;;2.50;;
13291;SDS011;6714;53.056;8.690;2023-03-04T01:48:12;10.67;;;1.93;;
13291;SDS011;6714;53.056;8.690;2023-03-04T01:50:57;8.93;;;2.13;;
13291;SDS011;6714;53.056;8.690;2023-03-04T01:53:43;10.23;;;1.87;;
13291;SDS011;6714;53.056;8.690;2023-03-04T01:56:27;7.53;;;1.90;;
13291;SDS011;6714;53.056;8.690;2023-03-04T01:59:11;6.40;;;2.00;;
13291;SDS011;6714;53.056;8.690;2023-03-04T02:01:54;5.07;;;1.70;;
13291;SDS011;6714;53.056;8.690;2023-03-04T02:04:37;6.40;;;2.13;;
13291;SDS011;6714;53.056;8.690;2023-03-04T02:07:20;9.20;;;1.80;;
13291;SDS011;6714;53.056;8.690;2023-03-04T02:10:04;6.77;;;1.90;;
13291;SDS011;6714;53.056;8.690;2023-03-04T02:12:46;8.47;;;2.20;;
13291;SDS011;6714;53.056;8.690;2023-03-04T02:15:29;7.80;;;2.00;;
13291;SDS011;6714;53.056;8.690;2023-03-04T02:18:13;7.97;;;2.17;;
13291;SDS011;6714;53.056;8.690;2023-03-04T02:20:59;8.43;;;1.93;;
13291;SDS011;6714;53.056;8.690;2023-03-04T02:23:45;8.20;;;2.10;;
13291;SDS011;6714;53.056;8.690;2023-03-04T02:26:31;6.97;;;2.00;;
13291;SDS011;6714;53.056;8.690;2023-03-04T02:29:15;9.20;;;2.20;;
13291;SDS011;6714;53.056;8.690;2023-03-04T02:31:58;10.97;;;2.10;;
13291;SDS011;6714;53.056;8.690;2023-03-04T02:34:44;9.63;;;2.37;;
13291;SDS011;6714;53.056;8.690;2023-03-04T02:37:26;7.87;;;2.33;;
13291;SDS011;6714;53.056;8.690;2023-03-04T02:40:09;4.93;;;1.87;;
13291;SDS011;6714;53.056;8.690;2023-03-04T02:42:58;7.63;;;2.03;;
13291;SDS011;6714;53.056;8.690;2023-03-04T02:45:41;7.87;;;2.13;;
13291;SDS011;6714;53.056;8.690;2023-03-04T02:48:24;6.03;;;2.07;;
13291;SDS011;6714;53.056;8.690;2023-03-04T02:51:06;7.63;;;2.30;;
13291;SDS011;6714;53.056;8.690;2023-03-04T02:53:48;6.37;;;2.33;;
13291;SDS011;6714;53.056;8.690;2023-03-04T02:56:30;6.57;;;1.80;;
13291;SDS011;6714;53.056;8.690;2023-03-04T02:59:14;6.10;;;1.90;;
13291;SDS011;6714;53.056;8.690;2023-03-04T03:01:56;9.00;;;2.07;;
13291;SDS011;6714;53.056;8.690;2023-03-04T03:04:38;6.30;;;1.60;;
13291;SDS011;6714;53.056;8.690;2023-03-04T03:07:21;6.20;;;2.20;;
13291;SDS011;6714;53.056;8.690;2023-03-04T03:10:04;7.90;;;2.00;;
13291;SDS011;6714;53.056;8.690;2023-03-04T03:12:46;6.50;;;1.80;;
13291;SDS011;6714;53.056;8.690;2023-03-04T03:15:30;5.53;;;1.77;;
13291;SDS011;6714;53.056;8.690;2023-03-04T03:18:12;6.50;;;1.60;;
13291;SDS011;6714;53.056;8.690;2023-03-04T03:20:54;5.23;;;1.67;;
13291;SDS011;6714;53.056;8.690;2023-03-04T03:23:36;9.30;;;1.73;;
13291;SDS011;6714;53.056;8.690;2023-03-04T03:26:19;4.73;;;1.67;;
13291;SDS011;6714;53.056;8.690;2023-03-04T03:29:01;5.20;;;1.80;;
13291;SDS011;6714;53.056;8.690;2023-03-04T03:31:45;3.43;;;1.70;;
13291;SDS011;6714;53.056;8.690;2023-03-04T03:34:27;2.37;;;1.30;;
13291;SDS011;6714;53.056;8.690;2023-03-04T03:37:09;4.53;;;1.80;;
13291;SDS011;6714;53.056;8.690;2023-03-04T03:39:51;8.83;;;2.27;;
13291;SDS011;6714;53.056;8.690;2023-03-04T03:42:34;5.93;;;1.57;;
13291;SDS011;6714;53.056;8.690;2023-03-04T03:45:16;5.83;;;1.73;;
13291;SDS011;6714;53.056;8.690;2023-03-04T03:47:59;7.43;;;1.70;;
13291;SDS011;6714;53.056;8.690;2023-03-04T03:50:41;3.27;;;1.47;;
13291;SDS011;6714;53.056;8.690;2023-03-04T03:53:24;6.73;;;1.93;;
13291;SDS011;6714;53.056;8.690;2023-03-04T03:56:06;6.13;;;1.60;;
13291;SDS011;6714;53.056;8.690;2023-03-04T03:58:48;4.87;;;1.47;;
13291;SDS011;6714;53.056;8.690;2023-03-04T04:01:31;7.70;;;1.93;;
13291;SDS011;6714;53.056;8.690;2023-03-04T04:04:15;4.73;;;1.30;;
13291;SDS011;6714;53.056;8.690;2023-03-04T04:06:57;7.00;;;1.87;;
13291;SDS011;6714;53.056;8.690;2023-03-04T04:09:39;5.80;;;1.70;;
13291;SDS011;6714;53.056;8.690;2023-03-04T04:12:21;4.90;;;1.43;;
13291;SDS011;6714;53.056;8.690;2023-03-04T04:15:04;5.63;;;1.60;;
13291;SDS011;6714;53.056;8.690;2023-03-04T04:17:46;5.03;;;1.50;;
13291;SDS011;6714;53.056;8.690;2023-03-04T04:20:30;7.27;;;1.70;;
13291;SDS011;6714;53.056;8.690;2023-03-04T04:23:12;5.23;;;1.70;;
13291;SDS011;6714;53.056;8.690;2023-03-04T04:25:54;5.40;;;1.47;;
13291;SDS011;6714;53.056;8.690;2023-03-04T04:28:36;4.80;;;1.60;;
13291;SDS011;6714;53.056;8.690;2023-03-04T04:31:18;5.37;;;1.40;;
13291;SDS011;6714;53.056;8.690;2023-03-04T04:34:00;3.30;;;1.40;;
13291;SDS011;6714;53.056;8.690;2023-03-04T04:36:44;3.20;;;1.33;;
13291;SDS011;6714;53.056;8.690;2023-03-04T04:39:26;3.57;;;1.57;;
13291;SDS011;6714;53.056;8.690;2023-03-04T04:42:08;6.90;;;1.60;;
13291;SDS011;6714;53.056;8.690;2023-03-04T04:44:50;2.77;;;1.30;;
13291;SDS011;6714;53.056;8.690;2023-03-04T04:47:33;3.33;;;1.20;;
13291;SDS011;6714;53.056;8.690;2023-03-04T04:50:15;4.60;;;1.60;;
13291;SDS011;6714;53.056;8.690;2023-03-04T04:52:59;5.43;;;1.53;;
13291;SDS011;6714;53.056;8.690;2023-03-04T04:55:42;6.93;;;1.93;;
13291;SDS011;6714;53.056;8.690;2023-03-04T04:58:24;6.77;;;1.60;;
13291;SDS011;6714;53.056;8.690;2023-03-04T05:01:09;6.27;;;1.60;;
13291;SDS011;6714;53.056;8.690;2023-03-04T05:03:51;3.83;;;1.30;;
13291;SDS011;6714;53.056;8.690;2023-03-04T05:06:34;3.20;;;1.27;;
13291;SDS011;6714;53.056;8.690;2023-03-04T05:09:18;3.43;;;1.23;;
13291;SDS011;6714;53.056;8.690;2023-03-04T05:12:02;7.73;;;1.33;;
13291;SDS011;6714;53.056;8.690;2023-03-04T05:14:45;1.63;;;1.30;;
13291;SDS011;6714;53.056;8.690;2023-03-04T05:17:28;2.93;;;1.30;;
13291;SDS011;6714;53.056;8.690;2023-03-04T05:20:10;4.70;;;1.30;;
13291;SDS011;6714;53.056;8.690;2023-03-04T05:22:53;5.63;;;1.50;;
13291;SDS011;6714;53.056;8.690;2023-03-04T05:25:37;4.67;;;1.67;;
13291;SDS011;6714;53.056;8.690;2023-03-04T05:28:20;7.20;;;1.50;;
13291;SDS011;6714;53.056;8.690;2023-03-04T05:31:02;3.43;;;1.20;;
13291;SDS011;6714;53.056;8.690;2023-03-04T05:33:45;3.93;;;1.10;;
13291;SDS011;6714;53.056;8.690;2023-03-04T05:36:27;3.33;;;1.10;;
13291;SDS011;6714;53.056;8.690;2023-03-04T05:39:09;4.93;;;1.40;;
13291;SDS011;6714;53.056;8.690;2023-03-04T05:41:53;4.90;;;1.47;;
13291;SDS011;6714;53.056;8.690;2023-03-04T05:44:35;9.33;;;1.77;;
13291;SDS011;6714;53.056;8.690;2023-03-04T05:47:18;4.60;;;1.50;;
13291;SDS011;6714;53.056;8.690;2023-03-04T05:50:00;4.13;;;1.50;;
13291;SDS011;6714;53.056;8.690;2023-03-04T05:52:43;5.47;;;1.57;;
13291;SDS011;6714;53.056;8.690;2023-03-04T05:55:25;3.47;;;1.10;;
13291;SDS011;6714;53.056;8.690;2023-03-04T05:58:10;3.77;;;1.30;;
13291;SDS011;6714;53.056;8.690;2023-03-04T06:00:53;2.63;;;1.13;;
13291;SDS011;6714;53.056;8.690;2023-03-04T06:03:35;2.70;;;1.17;;
13291;SDS011;6714;53.056;8.690;2023-03-04T06:06:17;2.97;;;1.10;;
13291;SDS011;6714;53.056;8.690;2023-03-04T06:09:00;6.50;;;2.20;;
13291;SDS011;6714;53.056;8.690;2023-03-04T06:11:42;6.30;;;1.73;;
13291;SDS011;6714;53.056;8.690;2023-03-04T06:14:26;2.47;;;1.20;;
13291;SDS011;6714;53.056;8.690;2023-03-04T06:17:08;3.67;;;1.30;;
13291;SDS011;6714;53.056;8.690;2023-03-04T06:19:51;5.83;;;1.67;;
13291;SDS011;6714;53.056;8.690;2023-03-04T06:22:35;2.23;;;1.37;;
13291;SDS011;6714;53.056;8.690;2023-03-04T06:25:17;3.60;;;1.33;;
13291;SDS011;6714;53.056;8.690;2023-03-04T06:28:00;3.17;;;1.37;;
13291;SDS011;6714;53.056;8.690;2023-03-04T06:30:44;5.50;;;1.37;;
13291;SDS011;6714;53.056;8.690;2023-03-04T06:33:26;2.87;;;1.53;;
13291;SDS011;6714;53.056;8.690;2023-03-04T06:36:09;3.27;;;1.47;;
13291;SDS011;6714;53.056;8.690;2023-03-04T06:38:51;4.20;;;1.57;;
13291;SDS011;6714;53.056;8.690;2023-03-04T06:41:34;3.47;;;1.53;;
13291;SDS011;6714;53.056;8.690;2023-03-04T06:44:16;5.70;;;1.37;;
13291;SDS011;6714;53.056;8.690;2023-03-04T06:47:01;5.73;;;1.57;;
13291;SDS011;6714;53.056;8.690;2023-03-04T06:49:43;3.40;;;1.63;;
13291;SDS011;6714;53.056;8.690;2023-03-04T06:52:26;3.43;;;1.47;;
13291;SDS011;6714;53.056;8.690;2023-03-04T06:55:22;2.63;;;1.50;;
13291;SDS011;6714;53.056;8.690;2023-03-04T06:58:19;3.17;;;1.37;;
13291;SDS011;6714;53.056;8.690;2023-03-04T07:01:16;4.30;;;1.80;;
13291;SDS011;6714;53.056;8.690;2023-03-04T07:13:37;3.77;;;1.20;;
13291;SDS011;6714;53.056;8.690;2023-03-04T07:16:28;5.90;;;1.60;;
13291;SDS011;6714;53.056;8.690;2023-03-04T07:19:11;2.80;;;1.13;;
13291;SDS011;6714;53.056;8.690;2023-03-04T07:21:55;5.23;;;1.77;;
13291;SDS011;6714;53.056;8.690;2023-03-04T07:24:37;8.17;;;2.13;;
13291;SDS011;6714;53.056;8.690;2023-03-04T07:27:24;8.00;;;2.70;;
13291;SDS011;6714;53.056;8.690;2023-03-04T07:30:14;6.07;;;1.90;;
13291;SDS011;6714;53.056;8.690;2023-03-04T07:32:56;5.67;;;2.20;;
13291;SDS011;6714;53.056;8.690;2023-03-04T07:35:39;6.33;;;1.93;;
13291;SDS011;6714;53.056;8.690;2023-03-04T07:38:26;7.33;;;2.13;;
13291;SDS011;6714;53.056;8.690;2023-03-04T07:41:09;6.10;;;2.80;;
13291;SDS011;6714;53.056;8.690;2023-03-04T07:43:55;9.17;;;2.27;;
13291;SDS011;6714;53.056;8.690;2023-03-04T07:46:41;8.37;;;2.13;;
13291;SDS011;6714;53.056;8.690;2023-03-04T07:49:27;7.90;;;2.30;;
13291;SDS011;6714;53.056;8.690;2023-03-04T07:52:11;3.93;;;1.63;;
13291;SDS011;6714;53.056;8.690;2023-03-04T07:54:56;6.50;;;2.20;;
13291;SDS011;6714;53.056;8.690;2023-03-04T07:57:38;9.37;;;2.43;;
13291;SDS011;6714;53.056;8.690;2023-03-04T08:00:23;8.20;;;1.93;;
13291;SDS011;6714;53.056;8.690;2023-03-04T08:03:16;7.93;;;2.00;;
13291;SDS011;6714;53.056;8.690;2023-03-04T08:05:59;11.87;;;2.90;;
13291;SDS011;6714;53.056;8.690;2023-03-04T08:08:55;5.37;;;2.30;;
13291;SDS011;6714;53.056;8.690;2023-03-04T08:11:39;7.77;;;2.60;;
13291;SDS011;6714;53.056;8.690;2023-03-04T08:14:26;9.20;;;2.57;;
13291;SDS011;6714;53.056;8.690;2023-03-04T08:17:09;9.70;;;2.83;;
13291;SDS011;6714;53.056;8.690;2023-03-04T08:19:55;15.97;;;3.30;;
13291;SDS011;6714;53.056;8.690;2023-03-04T08:22:38;11.60;;;2.63;;
13291;SDS011;6714;53.056;8.690;2023-03-04T08:25:20;11.30;;;2.87;;
13291;SDS011;6714;53.056;8.690;2023-03-04T08:28:03;13.43;;;3.27;;
13291;SDS011;6714;53.056;8.690;2023-03-04T08:30:50;7.87;;;2.57;;
13291;SDS011;6714;53.056;8.690;2023-03-04T08:33:33;11.40;;;3.40;;
13291;SDS011;6714;53.056;8.690;2023-03-04T08:36:17;10.90;;;2.67;;
13291;SDS011;6714;53.056;8.690;2023-03-04T08:38:59;10.13;;;2.57;;
13291;SDS011;6714;53.056;8.690;2023-03-04T08:41:42;11.63;;;2.67;;
13291;SDS011;6714;53.056;8.690;2023-03-04T08:44:26;11.07;;;2.70;;
13291;SDS011;6714;53.056;8.690;2023-03-04T08:47:08;10.13;;;2.80;;
13291;SDS011;6714;53.056;8.690;2023-03-04T08:49:51;6.90;;;1.97;;
13291;SDS011;6714;53.056;8.690;2023-03-04T08:52:39;13.27;;;2.30;;
13291;SDS011;6714;53.056;8.690;2023-03-04T08:55:22;9.60;;;2.60;;
13291;SDS011;6714;53.056;8.690;2023-03-04T08:58:04;12.53;;;2.60;;
13291;SDS011;6714;53.056;8.690;2023-03-04T09:00:48;11.13;;;2.43;;
13291;SDS011;6714;53.056;8.690;2023-03-04T09:03:31;9.93;;;2.47;;
13291;SDS011;6714;53.056;8.690;2023-03-04T09:06:14;7.47;;;2.23;;
13291;SDS011;6714;53.056;8.690;2023-03-04T09:08:59;12.47;;;2.60;;
13291;SDS011;6714;53.056;8.690;2023-03-04T09:11:41;11.47;;;2.20;;
13291;SDS011;6714;53.056;8.690;2023-03-04T09:14:24;7.73;;;2.40;;
13291;SDS011;6714;53.056;8.690;2023-03-04T09:17:07;7.10;;;2.43;;
13291;SDS011;6714;53.056;8.690;2023-03-04T09:19:50;10.93;;;2.03;;
13291;SDS011;6714;53.056;8.690;2023-03-04T09:22:32;11.13;;;2.73;;
13291;SDS011;6714;53.056;8.690;2023-03-04T09:25:17;8.90;;;2.20;;
13291;SDS011;6714;53.056;8.690;2023-03-04T09:28:00;12.63;;;2.50;;
13291;SDS011;6714;53.056;8.690;2023-03-04T09:30:43;8.03;;;2.30;;
13291;SDS011;6714;53.056;8.690;2023-03-04T09:33:25;10.30;;;2.33;;
13291;SDS011;6714;53.056;8.690;2023-03-04T09:36:08;10.20;;;2.50;;
13291;SDS011;6714;53.056;8.690;2023-03-04T09:38:51;8.40;;;2.00;;
13291;SDS011;6714;53.056;8.690;2023-03-04T09:41:39;11.23;;;3.10;;
13291;SDS011;6714;53.056;8.690;2023-03-04T09:44:25;10.17;;;2.50;;
13291;SDS011;6714;53.056;8.690;2023-03-04T09:47:11;12.23;;;3.00;;
13291;SDS011;6714;53.056;8.690;2023-03-04T09:49:55;11.93;;;2.77;;
13291;SDS011;6714;53.056;8.690;2023-03-04T09:52:42;11.63;;;3.07;;
13291;SDS011;6714;53.056;8.690;2023-03-04T09:55:30;8.27;;;2.37;;
13291;SDS011;6714;53.056;8.690;2023-03-04T09:58:19;9.97;;;2.87;;
13291;SDS011;6714;53.056;8.690;2023-03-04T10:01:07;11.40;;;3.07;;
13291;SDS011;6714;53.056;8.690;2023-03-04T10:03:53;10.10;;;2.80;;
13291;SDS011;6714;53.056;8.690;2023-03-04T10:06:37;15.87;;;3.07;;
13291;SDS011;6714;53.056;8.690;2023-03-04T10:09:20;13.20;;;2.83;;
13291;SDS011;6714;53.056;8.690;2023-03-04T10:12:08;9.97;;;2.50;;
13291;SDS011;6714;53.056;8.690;2023-03-04T10:14:56;13.83;;;3.07;;
13291;SDS011;6714;53.056;8.690;2023-03-04T10:17:44;11.97;;;3.53;;
13291;SDS011;6714;53.056;8.690;2023-03-04T10:20:30;10.23;;;2.83;;
13291;SDS011;6714;53.056;8.690;2023-03-04T10:23:18;11.37;;;3.03;;
13291;SDS011;6714;53.056;8.690;2023-03-04T10:26:09;13.97;;;3.10;;
13291;SDS011;6714;53.056;8.690;2023-03-04T10:28:52;13.27;;;2.97;;
13291;SDS011;6714;53.056;8.690;2023-03-04T10:31:36;18.73;;;3.80;;
13291;SDS011;6714;53.056;8.690;2023-03-04T10:34:21;10.43;;;3.20;;
13291;SDS011;6714;53.056;8.690;2023-03-04T10:37:05;17.47;;;3.37;;
13291;SDS011;6714;53.056;8.690;2023-03-04T10:39:48;12.43;;;3.10;;
13291;SDS011;6714;53.056;8.690;2023-03-04T10:42:31;12.80;;;3.00;;
13291;SDS011;6714;53.056;8.690;2023-03-04T10:45:24;15.50;;;3.40;;
13291;SDS011;6714;53.056;8.690;2023-03-04T10:48:18;18.87;;;4.97;;
13291;SDS011;6714;53.056;8.690;2023-03-04T10:51:09;10.93;;;2.87;;
13291;SDS011;6714;53.056;8.690;2023-03-04T10:53:55;13.03;;;2.83;;
13291;SDS011;6714;53.056;8.690;2023-03-04T10:56:39;11.80;;;3.13;;
13291;SDS011;6714;53.056;8.690;2023-03-04T10:59:42;12.47;;;3.03;;
13291;SDS011;6714;53.056;8.690;2023-03-04T11:02:26;12.70;;;3.20;;
13291;SDS011;6714;53.056;8.690;2023-03-04T11:05:17;11.13;;;3.10;;
13291;SDS011;6714;53.056;8.690;2023-03-04T11:08:00;9.37;;;2.73;;
13291;SDS011;6714;53.056;8.690;2023-03-04T11:10:43;12.70;;;2.63;;
13291;SDS011;6714;53.056;8.690;2023-03-04T11:13:29;14.83;;;3.53;;
13291;SDS011;6714;53.056;8.690;2023-03-04T11:16:22;10.07;;;2.87;;
13291;SDS011;6714;53.056;8.690;2023-03-04T11:19:09;10.90;;;3.57;;
13291;SDS011;6714;53.056;8.690;2023-03-04T11:21:56;15.23;;;3.43;;
13291;SDS011;6714;53.056;8.690;2023-03-04T11:24:39;11.47;;;2.83;;
13291;SDS011;6714;53.056;8.690;2023-03-04T11:27:23;10.30;;;2.83;;
13291;SDS011;6714;53.056;8.690;2023-03-04T11:33:13;15.77;;;3.53;;
13291;SDS011;6714;53.056;8.690;2023-03-04T11:35:58;11.40;;;3.00;;
13291;SDS011;6714;53.056;8.690;2023-03-04T11:38:47;11.63;;;3.00;;
13291;SDS011;6714;53.056;8.690;2023-03-04T11:41:31;14.67;;;3.53;;
13291;SDS011;6714;53.056;8.690;2023-03-04T11:44:14;8.93;;;2.40;;
13291;SDS011;6714;53.056;8.690;2023-03-04T11:47:12;12.73;;;3.27;;
13291;SDS011;6714;53.056;8.690;2023-03-04T11:53:19;15.27;;;3.23;;
13291;SDS011;6714;53.056;8.690;2023-03-04T11:56:17;11.73;;;2.90;;
13291;SDS011;6714;53.056;8.690;2023-03-04T11:59:12;13.50;;;3.23;;
13291;SDS011;6714;53.056;8.690;2023-03-04T12:02:02;14.07;;;3.73;;
13291;SDS011;6714;53.056;8.690;2023-03-04T12:04:54;14.60;;;3.87;;
13291;SDS011;6714;53.056;8.690;2023-03-04T12:07:51;13.53;;;3.00;;
13291;SDS011;6714;53.056;8.690;2023-03-04T12:10:36;11.73;;;3.20;;
13291;SDS011;6714;53.056;8.690;2023-03-04T12:16:27;12.93;;;3.17;;
13291;SDS011;6714;53.056;8.690;2023-03-04T12:19:15;13.13;;;3.17;;
13291;SDS011;6714;53.056;8.690;2023-03-04T12:22:16;20.70;;;3.87;;
13291;SDS011;6714;53.056;8.690;2023-03-04T12:25:13;14.83;;;3.40;;
13291;SDS011;6714;53.056;8.690;2023-03-04T12:30:59;9.00;;;2.53;;
13291;SDS011;6714;53.056;8.690;2023-03-04T12:33:49;13.10;;;3.63;;
13291;SDS011;6714;53.056;8.690;2023-03-04T12:36:37;14.63;;;3.40;;
13291;SDS011;6714;53.056;8.690;2023-03-04T12:39:25;11.03;;;3.23;;
13291;SDS011;6714;53.056;8.690;2023-03-04T12:42:13;11.10;;;3.40;;
13291;SDS011;6714;53.056;8.690;2023-03-04T12:45:00;9.73;;;2.83;;
13291;SDS011;6714;53.056;8.690;2023-03-04T12:47:45;13.90;;;2.90;;
13291;SDS011;6714;53.056;8.690;2023-03-04T12:53:32;11.37;;;3.17;;
13291;SDS011;6714;53.056;8.690;2023-03-04T12:56:18;12.23;;;3.20;;
13291;SDS011;6714;53.056;8.690;2023-03-04T12:59:03;11.93;;;3.13;;
13291;SDS011;6714;53.056;8.690;2023-03-04T13:01:48;14.57;;;3.80;;
13291;SDS011;6714;53.056;8.690;2023-03-04T13:04:34;12.43;;;3.30;;
13291;SDS011;6714;53.056;8.690;2023-03-04T13:07:23;12.53;;;3.27;;
13291;SDS011;6714;53.056;8.690;2023-03-04T13:10:10;12.20;;;3.23;;
13291;SDS011;6714;53.056;8.690;2023-03-04T13:12:54;9.80;;;3.03;;
13291;SDS011;6714;53.056;8.690;2023-03-04T13:15:37;10.67;;;3.47;;
13291;SDS011;6714;53.056;8.690;2023-03-04T13:21:21;10.60;;;3.50;;
13291;SDS011;6714;53.056;8.690;2023-03-04T13:27:02;11.60;;;3.17;;
13291;SDS011;6714;53.056;8.690;2023-03-04T13:30:08;11.67;;;3.43;;
13291;SDS011;6714;53.056;8.690;2023-03-04T13:36:25;13.53;;;3.47;;
13291;SDS011;6714;53.056;8.690;2023-03-04T13:39:21;13.10;;;2.83;;
13291;SDS011;6714;53.056;8.690;2023-03-04T13:45:03;16.03;;;3.73;;
13291;SDS011;6714;53.056;8.690;2023-03-04T13:47:46;10.23;;;3.40;;
13291;SDS011;6714;53.056;8.690;2023-03-04T13:50:31;12.47;;;3.80;;
13291;SDS011;6714;53.056;8.690;2023-03-04T13:56:21;8.93;;;2.93;;
13291;SDS011;6714;53.056;8.690;2023-03-04T14:02:13;12.70;;;3.77;;
13291;SDS011;6714;53.056;8.690;2023-03-04T14:04:56;11.50;;;2.97;;
13291;SDS011;6714;53.056;8.690;2023-03-04T14:07:39;11.87;;;3.20;;
13291;SDS011;6714;53.056;8.690;2023-03-04T14:10:23;14.00;;;3.50;;
13291;SDS011;6714;53.056;8.690;2023-03-04T14:13:07;10.10;;;2.63;;
13291;SDS011;6714;53.056;8.690;2023-03-04T14:15:53;8.00;;;2.47;;
13291;SDS011;6714;53.056;8.690;2023-03-04T14:18:37;11.53;;;2.60;;
13291;SDS011;6714;53.056;8.690;2023-03-04T14:21:19;8.67;;;2.63;;
13291;SDS011;6714;53.056;8.690;2023-03-04T14:24:02;10.70;;;3.00;;
13291;SDS011;6714;53.056;8.690;2023-03-04T14:26:45;10.37;;;3.20;;
13291;SDS011;6714;53.056;8.690;2023-03-04T14:29:28;8.57;;;2.90;;
13291;SDS011;6714;53.056;8.690;2023-03-04T14:32:10;12.77;;;3.10;;
13291;SDS011;6714;53.056;8.690;2023-03-04T14:34:55;11.37;;;2.93;;
13291;SDS011;6714;53.056;8.690;2023-03-04T14:37:41;9.63;;;2.67;;
13291;SDS011;6714;53.056;8.690;2023-03-04T14:40:25;7.37;;;2.80;;
13291;SDS011;6714;53.056;8.690;2023-03-04T14:43:09;9.50;;;2.70;;
13291;SDS011;6714;53.056;8.690;2023-03-04T14:45:53;10.47;;;3.43;;
13291;SDS011;6714;53.056;8.690;2023-03-04T14:48:36;11.90;;;3.17;;
13291;SDS011;6714;53.056;8.690;2023-03-04T14:51:30;9.77;;;3.00;;
13291;SDS011;6714;53.056;8.690;2023-03-04T14:57:19;10.07;;;2.80;;
13291;SDS011;6714;53.056;8.690;2023-03-04T15:00:16;9.97;;;2.63;;
13291;SDS011;6714;53.056;8.690;2023-03-04T15:02:59;7.67;;;2.27;;
13291;SDS011;6714;53.056;8.690;2023-03-04T15:05:41;8.87;;;2.73;;
13291;SDS011;6714;53.056;8.690;2023-03-04T15:08:26;9.30;;;2.80;;
13291;SDS011;6714;53.056;8.690;2023-03-04T15:11:12;7.87;;;2.40;;
13291;SDS011;6714;53.056;8.690;2023-03-04T15:13:56;8.33;;;2.47;;
13291;SDS011;6714;53.056;8.690;2023-03-04T15:16:51;7.77;;;2.63;;
13291;SDS011;6714;53.056;8.690;2023-03-04T15:19:35;11.30;;;2.50;;
13291;SDS011;6714;53.056;8.690;2023-03-04T15:22:17;6.90;;;2.37;;
13291;SDS011;6714;53.056;8.690;2023-03-04T15:25:01;8.13;;;2.33;;
13291;SDS011;6714;53.056;8.690;2023-03-04T15:27:43;8.77;;;2.50;;
13291;SDS011;6714;53.056;8.690;2023-03-04T15:30:26;10.33;;;2.20;;
13291;SDS011;6714;53.056;8.690;2023-03-04T15:33:09;7.13;;;2.17;;
13291;SDS011;6714;53.056;8.690;2023-03-04T15:35:52;10.13;;;2.23;;
13291;SDS011;6714;53.056;8.690;2023-03-04T15:38:36;6.77;;;2.00;;
13291;SDS011;6714;53.056;8.690;2023-03-04T15:41:21;8.40;;;1.67;;
13291;SDS011;6714;53.056;8.690;2023-03-04T15:44:04;7.63;;;2.23;;
13291;SDS011;6714;53.056;8.690;2023-03-04T15:46:47;6.90;;;1.93;;
13291;SDS011;6714;53.056;8.690;2023-03-04T15:49:29;6.13;;;2.27;;
13291;SDS011;6714;53.056;8.690;2023-03-04T15:52:11;6.03;;;2.00;;
13291;SDS011;6714;53.056;8.690;2023-03-04T15:54:56;7.33;;;2.50;;
13291;SDS011;6714;53.056;8.690;2023-03-04T15:57:41;5.50;;;2.00;;
13291;SDS011;6714;53.056;8.690;2023-03-04T16:00:24;8.27;;;1.90;;
13291;SDS011;6714;53.056;8.690;2023-03-04T16:03:09;9.43;;;2.53;;
13291;SDS011;6714;53.056;8.690;2023-03-04T16:05:53;5.73;;;1.90;;
13291;SDS011;6714;53.056;8.690;2023-03-04T16:08:36;11.63;;;2.47;;
13291;SDS011;6714;53.056;8.690;2023-03-04T16:11:19;6.13;;;1.77;;
13291;SDS011;6714;53.056;8.690;2023-03-04T16:14:03;6.27;;;1.83;;
13291;SDS011;6714;53.056;8.690;2023-03-04T16:16:46;3.63;;;1.53;;
13291;SDS011;6714;53.056;8.690;2023-03-04T16:19:29;3.63;;;1.60;;
13291;SDS011;6714;53.056;8.690;2023-03-04T16:22:12;5.47;;;1.80;;
13291;SDS011;6714;53.056;8.690;2023-03-04T16:24:54;3.87;;;1.53;;
13291;SDS011;6714;53.056;8.690;2023-03-04T16:27:36;7.57;;;1.80;;
13291;SDS011;6714;53.056;8.690;2023-03-04T16:30:21;6.73;;;1.70;;
13291;SDS011;6714;53.056;8.690;2023-03-04T16:33:04;7.70;;;1.90;;
13291;SDS011;6714;53.056;8.690;2023-03-04T16:35:46;7.20;;;1.87;;
13291;SDS011;6714;53.056;8.690;2023-03-04T16:38:30;9.77;;;2.53;;
13291;SDS011;6714;53.056;8.690;2023-03-04T16:41:13;6.70;;;2.13;;
13291;SDS011;6714;53.056;8.690;2023-03-04T16:43:57;5.53;;;1.80;;
13291;SDS011;6714;53.056;8.690;2023-03-04T16:46:40;9.10;;;2.30;;
13291;SDS011;6714;53.056;8.690;2023-03-04T16:52:14;6.43;;;2.00;;
13291;SDS011;6714;53.056;8.690;2023-03-04T16:55:00;4.73;;;1.90;;
13291;SDS011;6714;53.056;8.690;2023-03-04T16:57:42;6.53;;;1.70;;
13291;SDS011;6714;53.056;8.690;2023-03-04T17:00:25;7.07;;;1.73;;
13291;SDS011;6714;53.056;8.690;2023-03-04T17:03:09;5.37;;;1.87;;
13291;SDS011;6714;53.056;8.690;2023-03-04T17:05:52;7.23;;;2.27;;
13291;SDS011;6714;53.056;8.690;2023-03-04T17:08:34;9.97;;;2.30;;
13291;SDS011;6714;53.056;8.690;2023-03-04T17:11:17;5.90;;;2.00;;
13291;SDS011;6714;53.056;8.690;2023-03-04T17:14:00;6.93;;;1.87;;
13291;SDS011;6714;53.056;8.690;2023-03-04T17:16:42;7.37;;;2.20;;
13291;SDS011;6714;53.056;8.690;2023-03-04T17:19:26;5.90;;;2.20;;
13291;SDS011;6714;53.056;8.690;2023-03-04T17:22:08;5.80;;;2.20;;
13291;SDS011;6714;53.056;8.690;2023-03-04T17:24:51;5.47;;;2.20;;
13291;SDS011;6714;53.056;8.690;2023-03-04T17:27:33;8.83;;;2.17;;
13291;SDS011;6714;53.056;8.690;2023-03-04T17:30:16;5.73;;;1.93;;